Terminal Aerodrome Forecast
Issued by NWS

Home | Current Version | Previous Version | Text Only | Print | Product List | Glossary On
Versions: 1 2 3 4 5 6 7 8 9 10 11 12 13
000
FTUS43 KICT 042331
TAFCNU
TAF
KCNU 042331Z 0500/0524 19013KT P6SM VCSH OVC080
     FM050500 14007KT P6SM VCTS OVC050CB
     FM051600 13007KT P6SM -SHRA VCTS OVC050CB=

USA.gov is the U.S. government's official web portal to all federal, state and local government web resources and services.